createdAt,value
2018-04-11T00:03:51.584Z,54.70
2018-04-11T00:08:42.505Z,54.80
2018-04-11T00:13:33.412Z,54.90
2018-04-11T00:18:24.313Z,55.10
2018-04-11T00:23:15.281Z,55.10
2018-04-11T00:28:06.185Z,55.20
2018-04-11T00:32:57.082Z,55.30
2018-04-11T00:37:48.725Z,55.40
2018-04-11T00:42:40.377Z,55.40
2018-04-11T00:47:32.014Z,55.60
2018-04-11T00:52:23.661Z,56.10
2018-04-11T00:57:15.292Z,55.20
2018-04-11T01:02:06.172Z,55.20
2018-04-11T01:06:57.060Z,55.20
2018-04-11T01:11:48.740Z,55.40
2018-04-11T01:16:39.628Z,55.40
2018-04-11T01:21:31.265Z,55.60
2018-04-11T01:26:22.911Z,55.60
2018-04-11T01:31:14.555Z,55.50
2018-04-11T01:36:06.179Z,55.60
2018-04-11T01:40:57.072Z,55.60
2018-04-11T01:45:47.965Z,55.50
2018-04-11T01:50:39.649Z,55.20
2018-04-11T01:55:30.576Z,55.20
2018-04-11T02:00:21.459Z,55.40
2018-04-11T02:05:12.365Z,55.80
2018-04-11T02:10:03.248Z,55.90
2018-04-11T02:14:54.150Z,56.00
2018-04-11T02:19:45.779Z,56.20
2018-04-11T02:24:37.486Z,56.10
2018-04-11T02:29:28.376Z,56.00
2018-04-11T02:34:20.048Z,56.40
2018-04-11T02:39:10.931Z,56.40
2018-04-11T02:44:02.692Z,57.20
2018-04-11T02:48:54.329Z,56.80
2018-04-11T02:53:45.947Z,57.00
2018-04-11T02:58:36.953Z,56.80
2018-04-11T03:03:27.852Z,57.10
2018-04-11T03:08:18.732Z,57.00
2018-04-11T03:13:09.624Z,57.00
2018-04-11T03:18:00.562Z,57.10
2018-04-11T03:22:51.453Z,57.60
2018-04-11T03:27:43.071Z,57.00
2018-04-11T03:32:33.992Z,57.00
2018-04-11T03:37:24.875Z,57.20
2018-04-11T03:42:16.503Z,57.30
2018-04-11T03:47:07.395Z,57.20
2018-04-11T03:51:58.274Z,57.30
2018-04-11T03:56:49.172Z,57.40
2018-04-11T04:01:40.092Z,57.40
2018-04-11T04:06:31.692Z,57.40
2018-04-11T04:11:23.329Z,57.50
2018-04-11T04:16:27.496Z,57.50
2018-04-11T04:21:18.398Z,57.50
2018-04-11T04:26:09.330Z,57.70
2018-04-11T04:31:00.220Z,57.80
2018-04-11T04:35:51.207Z,58.00
2018-04-11T04:40:42.111Z,58.00
2018-04-11T04:45:33.764Z,57.70
2018-04-11T04:50:25.451Z,57.60
2018-04-11T04:55:16.339Z,57.60
2018-04-11T05:00:07.995Z,57.80
2018-04-11T05:04:58.964Z,57.80
2018-04-11T05:09:49.864Z,57.80
2018-04-11T05:14:40.808Z,58.00
2018-04-11T05:19:31.742Z,57.90
2018-04-11T05:24:22.665Z,58.20
2018-04-11T05:29:13.568Z,58.10
2018-04-11T05:34:04.455Z,58.40
2018-04-11T05:38:55.357Z,58.50
2018-04-11T05:43:46.274Z,58.50
2018-04-11T05:48:37.171Z,58.40
2018-04-11T05:53:28.856Z,58.40
2018-04-11T05:58:19.714Z,58.30
2018-04-11T06:03:10.622Z,58.40
2018-04-11T06:08:01.649Z,58.40
2018-04-11T06:12:52.581Z,58.40
2018-04-11T06:17:43.475Z,58.60
2018-04-11T06:22:34.434Z,58.60
2018-04-11T06:27:25.357Z,58.50
2018-04-11T06:32:16.258Z,58.70
2018-04-11T06:37:07.222Z,58.60
2018-04-11T06:41:58.118Z,58.90
2018-04-11T06:46:49.037Z,59.20
2018-04-11T06:51:39.994Z,59.20
2018-04-11T06:56:30.887Z,59.10
2018-04-11T07:01:21.848Z,59.20
2018-04-11T07:06:12.758Z,59.10
2018-04-11T07:11:03.655Z,59.30
2018-04-11T07:15:55.307Z,58.70
2018-04-11T07:20:47.010Z,59.30
2018-04-11T07:25:37.929Z,59.20
2018-04-11T07:30:28.815Z,59.00
2018-04-11T07:35:20.466Z,59.00
2018-04-11T07:40:11.423Z,59.00
2018-04-11T07:45:02.265Z,58.70
2018-04-11T07:49:53.167Z,58.70
2018-04-11T07:54:44.052Z,58.70
2018-04-11T07:59:34.949Z,58.70
2018-04-11T08:04:25.844Z,58.60
2018-04-11T08:09:16.741Z,58.50
2018-04-11T08:14:08.393Z,58.80
2018-04-11T08:18:59.281Z,58.70
2018-04-11T08:23:50.135Z,58.80
2018-04-11T08:28:41.777Z,58.90
2018-04-11T08:33:33.408Z,59.70
2018-04-11T08:38:24.303Z,59.10
2018-04-11T08:43:15.194Z,59.50
2018-04-11T08:48:06.079Z,60.00
2018-04-11T08:52:56.973Z,60.20
2018-04-11T08:57:47.864Z,60.20
2018-04-11T09:02:38.744Z,60.50
2018-04-11T09:07:29.658Z,60.20
2018-04-11T09:12:20.605Z,60.00
2018-04-11T09:17:11.507Z,60.00
2018-04-11T09:22:02.421Z,59.90
2018-04-11T09:26:53.325Z,59.50
2018-04-11T09:31:44.251Z,59.20
2018-04-11T09:36:35.161Z,58.90
2018-04-11T09:41:26.060Z,58.80
2018-04-11T09:46:16.946Z,58.80
2018-04-11T09:51:08.579Z,59.50
2018-04-11T09:55:59.484Z,58.80
2018-04-11T10:00:52.272Z,58.80
2018-04-11T10:05:43.177Z,58.80
2018-04-11T10:10:34.085Z,58.50
2018-04-11T10:15:24.964Z,58.20
2018-04-11T10:20:16.609Z,57.50
2018-04-11T10:25:08.270Z,56.80
2018-04-11T10:29:59.168Z,56.80
2018-04-11T10:34:50.073Z,56.60
2018-04-11T10:39:41.001Z,56.80
2018-04-11T10:44:31.898Z,56.30
2018-04-11T10:49:23.569Z,55.80
2018-04-11T10:54:14.460Z,55.60
2018-04-11T10:59:05.366Z,55.60
2018-04-11T11:03:57.026Z,56.00
2018-04-11T11:08:48.668Z,55.40
2018-04-11T11:13:40.313Z,55.00
2018-04-11T11:18:31.995Z,54.70
2018-04-11T11:23:22.893Z,54.50
2018-04-11T11:28:13.810Z,54.20
2018-04-11T11:33:04.696Z,54.10
2018-04-11T11:37:55.609Z,53.50
2018-04-11T11:42:46.515Z,53.10
2018-04-11T11:47:37.534Z,53.00
2018-04-11T11:52:29.166Z,53.30
2018-04-11T11:57:20.840Z,53.60
2018-04-11T12:02:12.469Z,52.80
2018-04-11T12:07:04.905Z,52.40
2018-04-11T12:11:55.829Z,52.30
2018-04-11T12:16:46.711Z,52.40
2018-04-11T12:21:37.603Z,52.20
2018-04-11T12:26:29.244Z,51.80
2018-04-11T12:31:20.936Z,51.60
2018-04-11T12:36:11.823Z,51.60
2018-04-11T12:41:03.520Z,52.00
2018-04-11T12:45:54.433Z,51.90
2018-04-11T12:50:45.336Z,52.10
2018-04-11T12:55:36.320Z,52.20
2018-04-11T13:00:27.237Z,52.30
2018-04-11T13:05:18.135Z,52.50
2018-04-11T13:10:09.031Z,52.80
2018-04-11T13:15:01.405Z,51.30
2018-04-11T13:19:53.067Z,50.80
2018-04-11T13:24:43.955Z,50.80
2018-04-11T13:29:34.847Z,50.50
2018-04-11T13:34:25.739Z,50.80
2018-04-11T13:39:17.384Z,50.20
2018-04-11T13:44:09.076Z,50.30
2018-04-11T13:49:00.227Z,50.10
2018-04-11T13:53:51.899Z,50.70
2018-04-11T13:58:43.554Z,50.90
2018-04-11T14:03:35.191Z,50.90
2018-04-11T14:08:26.841Z,51.00
2018-04-11T14:13:18.495Z,51.20
2018-04-11T14:18:09.384Z,51.20
2018-04-11T14:23:00.274Z,50.90
2018-04-11T14:27:51.164Z,50.70
2018-04-11T14:32:42.080Z,50.60
2018-04-11T14:37:33.719Z,50.60
2018-04-11T14:42:25.369Z,51.00
2018-04-11T14:47:16.339Z,50.90
2018-04-11T14:52:07.254Z,51.10
2018-04-11T14:56:58.156Z,51.20
2018-04-11T15:01:49.047Z,51.10
2018-04-11T15:06:39.947Z,51.10
2018-04-11T15:11:30.876Z,52.20
2018-04-11T15:16:21.775Z,51.90
2018-04-11T15:21:12.684Z,52.30
2018-04-11T15:26:03.593Z,52.30
2018-04-11T15:30:55.234Z,53.20
2018-04-11T15:35:46.131Z,52.50
2018-04-11T15:40:37.029Z,52.80
2018-04-11T15:45:27.923Z,52.80
2018-04-11T15:50:19.604Z,52.60
2018-04-11T15:55:10.503Z,52.50
2018-04-11T16:00:01.388Z,52.80
2018-04-11T16:04:52.285Z,52.80
2018-04-11T16:09:43.188Z,52.70
2018-04-11T16:14:34.071Z,52.60
2018-04-11T16:19:24.947Z,52.60
2018-04-11T16:24:15.883Z,52.60
2018-04-11T16:29:06.783Z,52.60
2018-04-11T16:33:57.685Z,52.60
2018-04-11T16:38:49.336Z,52.90
2018-04-11T16:43:40.310Z,52.80
2018-04-11T16:48:31.207Z,53.00
2018-04-11T16:53:22.100Z,53.10
2018-04-11T16:58:13.130Z,53.00
2018-04-11T17:03:04.021Z,53.00
2018-04-11T17:07:54.934Z,53.30
2018-04-11T17:12:45.837Z,53.40
2018-04-11T17:17:36.715Z,53.50
2018-04-11T17:22:40.231Z,53.10
2018-04-11T17:27:43.583Z,53.60
2018-04-11T17:32:34.469Z,53.60
2018-04-11T17:37:26.144Z,53.90
2018-04-11T17:42:17.087Z,53.90
2018-04-11T17:47:08.157Z,54.00
2018-04-11T17:51:59.056Z,54.20
2018-04-11T17:56:49.952Z,54.40
2018-04-11T18:01:40.857Z,54.40
2018-04-11T18:06:31.766Z,54.30
2018-04-11T18:11:22.668Z,54.50
2018-04-11T18:16:13.578Z,54.60
2018-04-11T18:21:04.487Z,54.60
2018-04-11T18:25:55.410Z,54.70
2018-04-11T18:30:46.321Z,54.80
2018-04-11T18:35:37.239Z,54.90
2018-04-11T18:40:28.888Z,54.90
2018-04-11T18:45:20.518Z,54.90
2018-04-11T18:50:11.484Z,54.80
2018-04-11T18:55:02.378Z,55.10
2018-04-11T18:59:53.273Z,55.30
2018-04-11T19:04:44.159Z,55.20
2018-04-11T19:09:35.807Z,55.10
2018-04-11T19:14:27.488Z,55.20
2018-04-11T19:19:18.367Z,55.10
2018-04-11T19:24:25.030Z,55.40
2018-04-11T19:29:15.916Z,55.30
2018-04-11T19:34:06.853Z,55.30
2018-04-11T19:38:57.734Z,55.40
2018-04-11T19:43:49.425Z,55.60
2018-04-11T19:48:40.351Z,55.60
2018-04-11T19:53:31.267Z,55.70
2018-04-11T19:58:22.159Z,55.80
2018-04-11T20:03:13.794Z,55.80
2018-04-11T20:08:05.442Z,55.80
2018-04-11T20:12:57.071Z,55.90
2018-04-11T20:17:47.981Z,55.80
2018-04-11T20:22:38.879Z,55.80
2018-04-11T20:27:29.775Z,55.80
2018-04-11T20:32:20.663Z,56.00
2018-04-11T20:37:11.565Z,56.00
2018-04-11T20:42:02.481Z,56.00
2018-04-11T20:46:53.525Z,56.10
2018-04-11T20:51:44.425Z,56.20
2018-04-11T20:56:36.068Z,56.30
2018-04-11T21:01:27.742Z,56.20
2018-04-11T21:06:18.646Z,56.20
2018-04-11T21:11:10.283Z,56.40
2018-04-11T21:16:01.189Z,56.40
2018-04-11T21:20:52.088Z,56.40
2018-04-11T21:25:43.739Z,56.80
2018-04-11T21:30:35.404Z,56.80
2018-04-11T21:35:26.449Z,56.80
2018-04-11T21:40:17.356Z,56.80
2018-04-11T21:45:09.000Z,56.50
2018-04-11T21:50:00.625Z,56.80
2018-04-11T21:54:51.521Z,56.70
2018-04-11T21:59:42.426Z,56.80
2018-04-11T22:04:34.065Z,57.10
2018-04-11T22:09:25.760Z,57.20
2018-04-11T22:14:16.649Z,57.20
2018-04-11T22:19:08.276Z,57.20
2018-04-11T22:23:59.182Z,57.20
2018-04-11T22:28:50.068Z,57.10
2018-04-11T22:33:41.715Z,57.30
2018-04-11T22:38:33.378Z,56.90
2018-04-11T22:43:25.075Z,57.50
2018-04-11T22:48:16.030Z,57.50
2018-04-11T22:53:06.896Z,57.50
2018-04-11T22:57:58.542Z,57.50
2018-04-11T23:02:50.180Z,57.60
2018-04-11T23:07:41.081Z,57.60
2018-04-11T23:12:31.968Z,57.50
2018-04-11T23:17:23.600Z,57.50
2018-04-11T23:22:15.292Z,57.50
2018-04-11T23:27:06.176Z,57.50
2018-04-11T23:31:57.083Z,57.40
2018-04-11T23:36:47.969Z,57.40
2018-04-11T23:41:39.614Z,57.40
2018-04-11T23:46:31.282Z,56.90
2018-04-11T23:51:22.938Z,57.30
2018-04-11T23:56:14.650Z,57.40
